sensor_id;sensor_type;location;lat;lon;timestamp;P1;durP1;ratioP1;P2;durP2;ratioP2
44189;SDS011;29856;52.144;5.430;2022-07-15T00:01:34;5.55;;;1.40;;
44189;SDS011;29856;52.144;5.430;2022-07-15T00:04:00;8.38;;;1.50;;
44189;SDS011;29856;52.144;5.430;2022-07-15T00:06:26;5.68;;;1.55;;
44189;SDS011;29856;52.144;5.430;2022-07-15T00:08:51;8.57;;;1.50;;
44189;SDS011;29856;52.144;5.430;2022-07-15T00:11:16;9.02;;;1.50;;
44189;SDS011;29856;52.144;5.430;2022-07-15T00:13:42;6.68;;;2.47;;
44189;SDS011;29856;52.144;5.430;2022-07-15T00:16:07;10.20;;;2.15;;
44189;SDS011;29856;52.144;5.430;2022-07-15T00:18:33;11.85;;;1.83;;
44189;SDS011;29856;52.144;5.430;2022-07-15T00:20:58;11.43;;;2.63;;
44189;SDS011;29856;52.144;5.430;2022-07-15T00:23:24;7.82;;;2.10;;
44189;SDS011;29856;52.144;5.430;2022-07-15T00:25:49;10.70;;;2.65;;
44189;SDS011;29856;52.144;5.430;2022-07-15T00:28:15;9.45;;;2.00;;
44189;SDS011;29856;52.144;5.430;2022-07-15T00:30:41;10.18;;;1.77;;
44189;SDS011;29856;52.144;5.430;2022-07-15T00:33:07;8.35;;;1.67;;
44189;SDS011;29856;52.144;5.430;2022-07-15T00:35:35;6.68;;;1.90;;
44189;SDS011;29856;52.144;5.430;2022-07-15T00:38:02;3.95;;;1.20;;
44189;SDS011;29856;52.144;5.430;2022-07-15T00:40:29;7.30;;;1.77;;
44189;SDS011;29856;52.144;5.430;2022-07-15T00:42:55;13.05;;;1.77;;
44189;SDS011;29856;52.144;5.430;2022-07-15T00:45:22;7.10;;;1.50;;
44189;SDS011;29856;52.144;5.430;2022-07-15T00:47:50;8.35;;;1.65;;
44189;SDS011;29856;52.144;5.430;2022-07-15T00:50:18;7.78;;;2.20;;
44189;SDS011;29856;52.144;5.430;2022-07-15T00:52:45;8.85;;;1.40;;
44189;SDS011;29856;52.144;5.430;2022-07-15T00:55:18;7.83;;;1.40;;
44189;SDS011;29856;52.144;5.430;2022-07-15T00:57:45;7.45;;;2.05;;
44189;SDS011;29856;52.144;5.430;2022-07-15T01:00:13;5.65;;;1.67;;
44189;SDS011;29856;52.144;5.430;2022-07-15T01:02:39;10.40;;;2.15;;
44189;SDS011;29856;52.144;5.430;2022-07-15T01:05:06;4.45;;;1.50;;
44189;SDS011;29856;52.144;5.430;2022-07-15T01:07:33;13.95;;;1.60;;
44189;SDS011;29856;52.144;5.430;2022-07-15T01:09:59;10.73;;;1.85;;
44189;SDS011;29856;52.144;5.430;2022-07-15T01:12:25;5.82;;;1.48;;
44189;SDS011;29856;52.144;5.430;2022-07-15T01:14:51;10.88;;;2.05;;
44189;SDS011;29856;52.144;5.430;2022-07-15T01:17:17;6.10;;;1.73;;
44189;SDS011;29856;52.144;5.430;2022-07-15T01:19:42;4.95;;;1.50;;
44189;SDS011;29856;52.144;5.430;2022-07-15T01:22:08;5.82;;;1.55;;
44189;SDS011;29856;52.144;5.430;2022-07-15T01:24:33;6.45;;;1.33;;
44189;SDS011;29856;52.144;5.430;2022-07-15T01:26:59;7.07;;;1.67;;
44189;SDS011;29856;52.144;5.430;2022-07-15T01:29:25;8.18;;;1.67;;
44189;SDS011;29856;52.144;5.430;2022-07-15T01:31:51;10.00;;;2.13;;
44189;SDS011;29856;52.144;5.430;2022-07-15T01:34:17;8.60;;;1.52;;
44189;SDS011;29856;52.144;5.430;2022-07-15T01:36:42;6.40;;;1.67;;
44189;SDS011;29856;52.144;5.430;2022-07-15T01:39:08;6.97;;;1.52;;
44189;SDS011;29856;52.144;5.430;2022-07-15T01:41:33;8.18;;;2.08;;
44189;SDS011;29856;52.144;5.430;2022-07-15T01:43:59;7.50;;;1.27;;
44189;SDS011;29856;52.144;5.430;2022-07-15T01:46:24;7.32;;;1.42;;
44189;SDS011;29856;52.144;5.430;2022-07-15T01:48:50;5.78;;;1.45;;
44189;SDS011;29856;52.144;5.430;2022-07-15T01:51:15;7.22;;;1.67;;
44189;SDS011;29856;52.144;5.430;2022-07-15T01:53:41;6.40;;;1.83;;
44189;SDS011;29856;52.144;5.430;2022-07-15T01:56:06;6.22;;;1.30;;
44189;SDS011;29856;52.144;5.430;2022-07-15T01:58:32;8.98;;;1.92;;
44189;SDS011;29856;52.144;5.430;2022-07-15T02:00:57;5.70;;;1.45;;
44189;SDS011;29856;52.144;5.430;2022-07-15T02:03:23;5.95;;;1.30;;
44189;SDS011;29856;52.144;5.430;2022-07-15T02:05:48;6.97;;;1.55;;
44189;SDS011;29856;52.144;5.430;2022-07-15T02:08:14;5.43;;;1.20;;
44189;SDS011;29856;52.144;5.430;2022-07-15T02:10:39;7.60;;;1.67;;
44189;SDS011;29856;52.144;5.430;2022-07-15T02:13:08;5.18;;;1.20;;
44189;SDS011;29856;52.144;5.430;2022-07-15T02:15:35;4.88;;;1.50;;
44189;SDS011;29856;52.144;5.430;2022-07-15T02:18:01;5.43;;;1.63;;
44189;SDS011;29856;52.144;5.430;2022-07-15T02:20:27;11.80;;;2.05;;
44189;SDS011;29856;52.144;5.430;2022-07-15T02:22:53;11.38;;;2.13;;
44189;SDS011;29856;52.144;5.430;2022-07-15T02:25:19;6.82;;;1.42;;
44189;SDS011;29856;52.144;5.430;2022-07-15T02:27:44;6.10;;;2.00;;
44189;SDS011;29856;52.144;5.430;2022-07-15T02:30:10;7.60;;;1.10;;
44189;SDS011;29856;52.144;5.430;2022-07-15T02:32:35;7.07;;;1.42;;
44189;SDS011;29856;52.144;5.430;2022-07-15T02:35:01;9.00;;;1.63;;
44189;SDS011;29856;52.144;5.430;2022-07-15T02:37:26;6.32;;;1.60;;
44189;SDS011;29856;52.144;5.430;2022-07-15T02:39:52;9.43;;;1.63;;
44189;SDS011;29856;52.144;5.430;2022-07-15T02:42:17;9.95;;;1.92;;
44189;SDS011;29856;52.144;5.430;2022-07-15T02:44:43;8.85;;;2.22;;
44189;SDS011;29856;52.144;5.430;2022-07-15T02:47:08;6.88;;;1.30;;
44189;SDS011;29856;52.144;5.430;2022-07-15T02:49:34;9.85;;;2.17;;
44189;SDS011;29856;52.144;5.430;2022-07-15T02:51:59;7.95;;;1.35;;
44189;SDS011;29856;52.144;5.430;2022-07-15T02:54:24;4.80;;;1.08;;
44189;SDS011;29856;52.144;5.430;2022-07-15T02:56:50;5.40;;;1.30;;
44189;SDS011;29856;52.144;5.430;2022-07-15T02:59:15;6.82;;;1.88;;
44189;SDS011;29856;52.144;5.430;2022-07-15T03:01:41;6.65;;;1.58;;
44189;SDS011;29856;52.144;5.430;2022-07-15T03:04:06;5.20;;;1.40;;
44189;SDS011;29856;52.144;5.430;2022-07-15T03:06:32;7.97;;;1.55;;
44189;SDS011;29856;52.144;5.430;2022-07-15T03:08:57;13.65;;;1.75;;
44189;SDS011;29856;52.144;5.430;2022-07-15T03:11:23;8.95;;;1.98;;
44189;SDS011;29856;52.144;5.430;2022-07-15T03:13:48;6.40;;;1.40;;
44189;SDS011;29856;52.144;5.430;2022-07-15T03:16:14;6.10;;;1.38;;
44189;SDS011;29856;52.144;5.430;2022-07-15T03:18:39;4.80;;;1.48;;
44189;SDS011;29856;52.144;5.430;2022-07-15T03:21:05;4.43;;;1.38;;
44189;SDS011;29856;52.144;5.430;2022-07-15T03:23:30;7.93;;;1.50;;
44189;SDS011;29856;52.144;5.430;2022-07-15T03:25:56;5.53;;;1.50;;
44189;SDS011;29856;52.144;5.430;2022-07-15T03:28:21;9.63;;;1.83;;
44189;SDS011;29856;52.144;5.430;2022-07-15T03:30:46;9.75;;;2.30;;
44189;SDS011;29856;52.144;5.430;2022-07-15T03:33:12;5.43;;;1.45;;
44189;SDS011;29856;52.144;5.430;2022-07-15T03:35:37;9.70;;;1.88;;
44189;SDS011;29856;52.144;5.430;2022-07-15T03:38:03;7.45;;;1.35;;
44189;SDS011;29856;52.144;5.430;2022-07-15T03:40:28;8.55;;;1.48;;
44189;SDS011;29856;52.144;5.430;2022-07-15T03:42:54;6.10;;;1.88;;
44189;SDS011;29856;52.144;5.430;2022-07-15T03:45:19;5.80;;;1.42;;
44189;SDS011;29856;52.144;5.430;2022-07-15T03:47:45;6.40;;;1.70;;
44189;SDS011;29856;52.144;5.430;2022-07-15T03:50:10;9.13;;;1.95;;
44189;SDS011;29856;52.144;5.430;2022-07-15T03:52:36;7.28;;;1.60;;
44189;SDS011;29856;52.144;5.430;2022-07-15T03:55:01;6.47;;;1.60;;
44189;SDS011;29856;52.144;5.430;2022-07-15T03:57:26;3.97;;;1.63;;
44189;SDS011;29856;52.144;5.430;2022-07-15T03:59:52;5.68;;;1.90;;
44189;SDS011;29856;52.144;5.430;2022-07-15T04:02:17;7.85;;;1.80;;
44189;SDS011;29856;52.144;5.430;2022-07-15T04:04:43;8.45;;;1.77;;
44189;SDS011;29856;52.144;5.430;2022-07-15T04:07:08;6.85;;;1.50;;
44189;SDS011;29856;52.144;5.430;2022-07-15T04:09:34;10.10;;;1.83;;
44189;SDS011;29856;52.144;5.430;2022-07-15T04:11:59;5.97;;;1.20;;
44189;SDS011;29856;52.144;5.430;2022-07-15T04:14:25;8.48;;;1.40;;
44189;SDS011;29856;52.144;5.430;2022-07-15T04:16:50;4.82;;;1.30;;
44189;SDS011;29856;52.144;5.430;2022-07-15T04:19:16;7.90;;;1.55;;
44189;SDS011;29856;52.144;5.430;2022-07-15T04:21:41;6.88;;;1.58;;
44189;SDS011;29856;52.144;5.430;2022-07-15T04:24:06;5.80;;;1.60;;
44189;SDS011;29856;52.144;5.430;2022-07-15T04:26:32;9.02;;;1.40;;
44189;SDS011;29856;52.144;5.430;2022-07-15T04:28:57;6.97;;;1.40;;
44189;SDS011;29856;52.144;5.430;2022-07-15T04:31:23;5.45;;;1.65;;
44189;SDS011;29856;52.144;5.430;2022-07-15T04:33:48;10.98;;;1.98;;
44189;SDS011;29856;52.144;5.430;2022-07-15T04:36:14;7.63;;;2.25;;
44189;SDS011;29856;52.144;5.430;2022-07-15T04:38:39;8.05;;;1.45;;
44189;SDS011;29856;52.144;5.430;2022-07-15T04:41:05;7.10;;;1.30;;
44189;SDS011;29856;52.144;5.430;2022-07-15T04:43:30;3.58;;;1.40;;
44189;SDS011;29856;52.144;5.430;2022-07-15T04:45:56;8.85;;;1.88;;
44189;SDS011;29856;52.144;5.430;2022-07-15T04:48:21;8.05;;;1.42;;
44189;SDS011;29856;52.144;5.430;2022-07-15T04:50:47;8.15;;;1.60;;
44189;SDS011;29856;52.144;5.430;2022-07-15T04:53:12;8.60;;;1.80;;
44189;SDS011;29856;52.144;5.430;2022-07-15T04:55:38;5.72;;;1.67;;
44189;SDS011;29856;52.144;5.430;2022-07-15T04:58:03;8.25;;;1.75;;
44189;SDS011;29856;52.144;5.430;2022-07-15T05:00:29;11.02;;;1.75;;
44189;SDS011;29856;52.144;5.430;2022-07-15T05:02:55;5.22;;;1.70;;
44189;SDS011;29856;52.144;5.430;2022-07-15T05:05:20;6.57;;;1.50;;
44189;SDS011;29856;52.144;5.430;2022-07-15T05:07:46;11.93;;;2.15;;
44189;SDS011;29856;52.144;5.430;2022-07-15T05:10:11;7.07;;;2.03;;
44189;SDS011;29856;52.144;5.430;2022-07-15T05:12:37;7.60;;;1.75;;
44189;SDS011;29856;52.144;5.430;2022-07-15T05:15:03;7.25;;;1.67;;
44189;SDS011;29856;52.144;5.430;2022-07-15T05:17:29;8.18;;;2.03;;
44189;SDS011;29856;52.144;5.430;2022-07-15T05:19:55;4.57;;;1.63;;
44189;SDS011;29856;52.144;5.430;2022-07-15T05:22:20;8.50;;;2.03;;
44189;SDS011;29856;52.144;5.430;2022-07-15T05:24:46;11.55;;;1.90;;
44189;SDS011;29856;52.144;5.430;2022-07-15T05:27:12;9.65;;;1.60;;
44189;SDS011;29856;52.144;5.430;2022-07-15T05:29:37;2.65;;;1.23;;
44189;SDS011;29856;52.144;5.430;2022-07-15T05:32:03;8.02;;;1.95;;
44189;SDS011;29856;52.144;5.430;2022-07-15T05:34:29;8.00;;;1.80;;
44189;SDS011;29856;52.144;5.430;2022-07-15T05:36:54;6.88;;;1.73;;
44189;SDS011;29856;52.144;5.430;2022-07-15T05:39:20;11.10;;;1.83;;
44189;SDS011;29856;52.144;5.430;2022-07-15T05:41:45;9.90;;;1.85;;
44189;SDS011;29856;52.144;5.430;2022-07-15T05:44:11;8.20;;;1.70;;
44189;SDS011;29856;52.144;5.430;2022-07-15T05:46:36;10.57;;;1.80;;
44189;SDS011;29856;52.144;5.430;2022-07-15T05:49:02;7.30;;;1.70;;
44189;SDS011;29856;52.144;5.430;2022-07-15T05:51:27;7.15;;;1.42;;
44189;SDS011;29856;52.144;5.430;2022-07-15T05:53:53;9.18;;;1.70;;
44189;SDS011;29856;52.144;5.430;2022-07-15T05:56:19;7.22;;;1.58;;
44189;SDS011;29856;52.144;5.430;2022-07-15T05:58:45;9.57;;;1.73;;
44189;SDS011;29856;52.144;5.430;2022-07-15T06:01:10;4.85;;;1.25;;
44189;SDS011;29856;52.144;5.430;2022-07-15T06:03:36;9.57;;;2.00;;
44189;SDS011;29856;52.144;5.430;2022-07-15T06:06:02;18.15;;;1.95;;
44189;SDS011;29856;52.144;5.430;2022-07-15T06:08:28;10.60;;;1.73;;
44189;SDS011;29856;52.144;5.430;2022-07-15T06:10:54;9.35;;;2.10;;
44189;SDS011;29856;52.144;5.430;2022-07-15T06:13:19;8.23;;;1.60;;
44189;SDS011;29856;52.144;5.430;2022-07-15T06:15:45;12.00;;;2.25;;
44189;SDS011;29856;52.144;5.430;2022-07-15T06:18:10;8.07;;;1.63;;
44189;SDS011;29856;52.144;5.430;2022-07-15T06:20:36;7.65;;;1.52;;
44189;SDS011;29856;52.144;5.430;2022-07-15T06:23:01;5.25;;;1.35;;
44189;SDS011;29856;52.144;5.430;2022-07-15T06:25:27;7.60;;;1.40;;
44189;SDS011;29856;52.144;5.430;2022-07-15T06:27:52;6.47;;;1.42;;
44189;SDS011;29856;52.144;5.430;2022-07-15T06:30:18;6.65;;;1.77;;
44189;SDS011;29856;52.144;5.430;2022-07-15T06:32:43;8.27;;;1.20;;
44189;SDS011;29856;52.144;5.430;2022-07-15T06:35:08;10.63;;;1.75;;
44189;SDS011;29856;52.144;5.430;2022-07-15T06:37:34;4.97;;;1.35;;
44189;SDS011;29856;52.144;5.430;2022-07-15T06:39:59;7.63;;;1.50;;
44189;SDS011;29856;52.144;5.430;2022-07-15T06:42:25;8.65;;;2.15;;
44189;SDS011;29856;52.144;5.430;2022-07-15T06:44:51;6.75;;;1.50;;
44189;SDS011;29856;52.144;5.430;2022-07-15T06:47:16;5.82;;;1.20;;
44189;SDS011;29856;52.144;5.430;2022-07-15T06:49:42;8.32;;;1.63;;
44189;SDS011;29856;52.144;5.430;2022-07-15T06:52:07;5.55;;;1.40;;
44189;SDS011;29856;52.144;5.430;2022-07-15T06:54:33;4.70;;;1.52;;
44189;SDS011;29856;52.144;5.430;2022-07-15T06:56:59;8.63;;;1.23;;
44189;SDS011;29856;52.144;5.430;2022-07-15T06:59:24;5.57;;;1.10;;
44189;SDS011;29856;52.144;5.430;2022-07-15T07:01:50;7.75;;;1.38;;
44189;SDS011;29856;52.144;5.430;2022-07-15T07:04:16;7.50;;;1.33;;
44189;SDS011;29856;52.144;5.430;2022-07-15T07:06:41;7.82;;;1.48;;
44189;SDS011;29856;52.144;5.430;2022-07-15T07:09:07;8.98;;;1.83;;
44189;SDS011;29856;52.144;5.430;2022-07-15T07:11:32;8.77;;;1.63;;
44189;SDS011;29856;52.144;5.430;2022-07-15T07:13:58;7.65;;;1.60;;
44189;SDS011;29856;52.144;5.430;2022-07-15T07:16:24;8.00;;;2.08;;
44189;SDS011;29856;52.144;5.430;2022-07-15T07:18:49;4.30;;;1.17;;
44189;SDS011;29856;52.144;5.430;2022-07-15T07:21:15;11.55;;;1.48;;
44189;SDS011;29856;52.144;5.430;2022-07-15T07:23:40;6.28;;;1.33;;
44189;SDS011;29856;52.144;5.430;2022-07-15T07:26:06;8.88;;;1.60;;
44189;SDS011;29856;52.144;5.430;2022-07-15T07:28:33;7.32;;;1.58;;
44189;SDS011;29856;52.144;5.430;2022-07-15T07:30:59;7.13;;;1.25;;
44189;SDS011;29856;52.144;5.430;2022-07-15T07:33:25;9.10;;;1.27;;
44189;SDS011;29856;52.144;5.430;2022-07-15T07:35:50;6.43;;;1.25;;
44189;SDS011;29856;52.144;5.430;2022-07-15T07:38:16;4.03;;;1.25;;
44189;SDS011;29856;52.144;5.430;2022-07-15T07:40:43;5.15;;;1.58;;
44189;SDS011;29856;52.144;5.430;2022-07-15T07:43:09;5.88;;;1.15;;
44189;SDS011;29856;52.144;5.430;2022-07-15T07:45:34;9.02;;;1.60;;
44189;SDS011;29856;52.144;5.430;2022-07-15T07:48:00;4.38;;;1.27;;
44189;SDS011;29856;52.144;5.430;2022-07-15T07:50:26;6.25;;;1.50;;
44189;SDS011;29856;52.144;5.430;2022-07-15T07:52:51;5.28;;;1.20;;
44189;SDS011;29856;52.144;5.430;2022-07-15T07:55:16;5.97;;;1.45;;
44189;SDS011;29856;52.144;5.430;2022-07-15T07:57:49;5.55;;;0.95;;
44189;SDS011;29856;52.144;5.430;2022-07-15T08:00:16;4.30;;;0.90;;
44189;SDS011;29856;52.144;5.430;2022-07-15T08:02:42;4.30;;;1.23;;
44189;SDS011;29856;52.144;5.430;2022-07-15T08:05:08;5.65;;;1.30;;
44189;SDS011;29856;52.144;5.430;2022-07-15T08:07:34;7.22;;;1.10;;
44189;SDS011;29856;52.144;5.430;2022-07-15T08:09:59;4.38;;;1.00;;
44189;SDS011;29856;52.144;5.430;2022-07-15T08:12:25;7.00;;;1.33;;
44189;SDS011;29856;52.144;5.430;2022-07-15T08:14:50;3.92;;;1.10;;
44189;SDS011;29856;52.144;5.430;2022-07-15T08:17:16;3.40;;;1.25;;
44189;SDS011;29856;52.144;5.430;2022-07-15T08:19:41;4.38;;;1.08;;
44189;SDS011;29856;52.144;5.430;2022-07-15T08:22:07;4.15;;;1.10;;
44189;SDS011;29856;52.144;5.430;2022-07-15T08:24:32;4.88;;;1.52;;
44189;SDS011;29856;52.144;5.430;2022-07-15T08:26:58;3.53;;;0.90;;
44189;SDS011;29856;52.144;5.430;2022-07-15T08:29:23;4.82;;;0.90;;
44189;SDS011;29856;52.144;5.430;2022-07-15T08:31:48;5.35;;;0.95;;
44189;SDS011;29856;52.144;5.430;2022-07-15T08:34:14;5.32;;;1.20;;
44189;SDS011;29856;52.144;5.430;2022-07-15T08:36:39;6.25;;;1.15;;
44189;SDS011;29856;52.144;5.430;2022-07-15T08:39:05;2.60;;;0.90;;
44189;SDS011;29856;52.144;5.430;2022-07-15T08:41:33;5.60;;;0.82;;
44189;SDS011;29856;52.144;5.430;2022-07-15T08:43:59;3.22;;;1.05;;
44189;SDS011;29856;52.144;5.430;2022-07-15T08:46:25;3.03;;;0.90;;
44189;SDS011;29856;52.144;5.430;2022-07-15T08:48:51;4.43;;;1.25;;
44189;SDS011;29856;52.144;5.430;2022-07-15T08:51:19;3.83;;;0.88;;
44189;SDS011;29856;52.144;5.430;2022-07-15T08:53:47;2.10;;;0.82;;
44189;SDS011;29856;52.144;5.430;2022-07-15T08:56:15;5.35;;;1.23;;
44189;SDS011;29856;52.144;5.430;2022-07-15T08:58:45;6.82;;;1.00;;
44189;SDS011;29856;52.144;5.430;2022-07-15T09:01:11;2.45;;;0.80;;
44189;SDS011;29856;52.144;5.430;2022-07-15T09:03:36;4.85;;;0.70;;
44189;SDS011;29856;52.144;5.430;2022-07-15T09:06:02;4.95;;;1.20;;
44189;SDS011;29856;52.144;5.430;2022-07-15T09:08:27;5.60;;;0.82;;
44189;SDS011;29856;52.144;5.430;2022-07-15T09:10:54;3.95;;;0.88;;
44189;SDS011;29856;52.144;5.430;2022-07-15T09:16:01;2.33;;;1.00;;
44189;SDS011;29856;52.144;5.430;2022-07-15T09:18:32;4.13;;;0.90;;
44189;SDS011;29856;52.144;5.430;2022-07-15T09:20:59;2.80;;;1.00;;
44189;SDS011;29856;52.144;5.430;2022-07-15T09:23:26;7.35;;;1.63;;
44189;SDS011;29856;52.144;5.430;2022-07-15T09:25:53;3.60;;;1.30;;
44189;SDS011;29856;52.144;5.430;2022-07-15T09:28:19;4.05;;;0.95;;
44189;SDS011;29856;52.144;5.430;2022-07-15T09:30:45;6.45;;;1.05;;
44189;SDS011;29856;52.144;5.430;2022-07-15T09:33:13;3.55;;;0.90;;
44189;SDS011;29856;52.144;5.430;2022-07-15T09:35:55;3.40;;;1.33;;
44189;SDS011;29856;52.144;5.430;2022-07-15T09:38:38;4.18;;;1.15;;
44189;SDS011;29856;52.144;5.430;2022-07-15T09:41:24;4.68;;;0.88;;
44189;SDS011;29856;52.144;5.430;2022-07-15T09:43:59;3.83;;;1.05;;
44189;SDS011;29856;52.144;5.430;2022-07-15T09:46:26;5.05;;;1.20;;
44189;SDS011;29856;52.144;5.430;2022-07-15T09:48:54;4.25;;;0.85;;
44189;SDS011;29856;52.144;5.430;2022-07-15T09:51:20;2.50;;;0.82;;
44189;SDS011;29856;52.144;5.430;2022-07-15T09:53:46;2.25;;;0.90;;
44189;SDS011;29856;52.144;5.430;2022-07-15T09:56:14;7.72;;;1.10;;
44189;SDS011;29856;52.144;5.430;2022-07-15T09:58:42;2.60;;;0.85;;
44189;SDS011;29856;52.144;5.430;2022-07-15T10:01:09;4.20;;;1.10;;
44189;SDS011;29856;52.144;5.430;2022-07-15T10:03:36;2.30;;;0.95;;
44189;SDS011;29856;52.144;5.430;2022-07-15T10:06:03;4.43;;;0.80;;
44189;SDS011;29856;52.144;5.430;2022-07-15T10:08:30;4.40;;;0.77;;
44189;SDS011;29856;52.144;5.430;2022-07-15T10:10:56;5.43;;;0.70;;
44189;SDS011;29856;52.144;5.430;2022-07-15T10:13:39;2.75;;;0.88;;
44189;SDS011;29856;52.144;5.430;2022-07-15T10:19:15;1.77;;;0.65;;
44189;SDS011;29856;52.144;5.430;2022-07-15T10:24:33;3.50;;;0.90;;
44189;SDS011;29856;52.144;5.430;2022-07-15T10:27:29;1.98;;;0.40;;
44189;SDS011;29856;52.144;5.430;2022-07-15T10:30:21;2.00;;;0.80;;
44189;SDS011;29856;52.144;5.430;2022-07-15T10:35:45;2.58;;;0.60;;
44189;SDS011;29856;52.144;5.430;2022-07-15T10:40:57;2.60;;;0.50;;
44189;SDS011;29856;52.144;5.430;2022-07-15T10:48:43;4.17;;;0.83;;
44189;SDS011;29856;52.144;5.430;2022-07-15T10:51:09;4.20;;;0.68;;
44189;SDS011;29856;52.144;5.430;2022-07-15T10:53:42;3.85;;;0.85;;
44189;SDS011;29856;52.144;5.430;2022-07-15T10:56:26;3.67;;;1.15;;
44189;SDS011;29856;52.144;5.430;2022-07-15T11:01:34;4.35;;;0.70;;
44189;SDS011;29856;52.144;5.430;2022-07-15T11:04:17;2.67;;;0.80;;
44189;SDS011;29856;52.144;5.430;2022-07-15T11:15:01;5.05;;;1.83;;
44189;SDS011;29856;52.144;5.430;2022-07-15T11:22:29;4.85;;;1.20;;
44189;SDS011;29856;52.144;5.430;2022-07-15T11:24:55;5.93;;;1.08;;
44189;SDS011;29856;52.144;5.430;2022-07-15T11:27:22;1.85;;;1.00;;
44189;SDS011;29856;52.144;5.430;2022-07-15T11:29:50;2.60;;;1.02;;
44189;SDS011;29856;52.144;5.430;2022-07-15T11:32:21;2.42;;;0.90;;
44189;SDS011;29856;52.144;5.430;2022-07-15T11:34:51;2.30;;;0.88;;
44189;SDS011;29856;52.144;5.430;2022-07-15T11:37:18;1.48;;;0.55;;
44189;SDS011;29856;52.144;5.430;2022-07-15T11:39:51;1.90;;;0.80;;
44189;SDS011;29856;52.144;5.430;2022-07-15T11:42:31;1.95;;;0.70;;
44189;SDS011;29856;52.144;5.430;2022-07-15T11:44:57;3.90;;;0.80;;
44189;SDS011;29856;52.144;5.430;2022-07-15T11:47:23;3.10;;;0.60;;
44189;SDS011;29856;52.144;5.430;2022-07-15T11:49:48;3.42;;;0.90;;
44189;SDS011;29856;52.144;5.430;2022-07-15T11:52:22;1.90;;;1.13;;
44189;SDS011;29856;52.144;5.430;2022-07-15T11:54:48;2.90;;;1.10;;
44189;SDS011;29856;52.144;5.430;2022-07-15T11:57:14;2.92;;;0.60;;
44189;SDS011;29856;52.144;5.430;2022-07-15T11:59:40;5.40;;;0.77;;
44189;SDS011;29856;52.144;5.430;2022-07-15T12:02:22;1.98;;;0.50;;
44189;SDS011;29856;52.144;5.430;2022-07-15T12:04:49;0.80;;;0.68;;
44189;SDS011;29856;52.144;5.430;2022-07-15T12:07:14;1.90;;;0.77;;
44189;SDS011;29856;52.144;5.430;2022-07-15T12:09:43;2.72;;;0.45;;
44189;SDS011;29856;52.144;5.430;2022-07-15T12:12:10;3.47;;;0.75;;
44189;SDS011;29856;52.144;5.430;2022-07-15T12:14:36;1.23;;;0.60;;
44189;SDS011;29856;52.144;5.430;2022-07-15T12:17:02;0.95;;;0.40;;
44189;SDS011;29856;52.144;5.430;2022-07-15T12:19:29;1.55;;;0.50;;
44189;SDS011;29856;52.144;5.430;2022-07-15T12:21:58;7.30;;;0.80;;
44189;SDS011;29856;52.144;5.430;2022-07-15T12:24:26;1.85;;;0.60;;
44189;SDS011;29856;52.144;5.430;2022-07-15T12:27:01;1.27;;;0.60;;
44189;SDS011;29856;52.144;5.430;2022-07-15T12:29:28;2.35;;;0.77;;
44189;SDS011;29856;52.144;5.430;2022-07-15T12:31:56;2.65;;;0.70;;
44189;SDS011;29856;52.144;5.430;2022-07-15T12:34:48;2.42;;;1.00;;
44189;SDS011;29856;52.144;5.430;2022-07-15T12:37:12;3.92;;;1.00;;
44189;SDS011;29856;52.144;5.430;2022-07-15T12:42:37;1.67;;;0.65;;
44189;SDS011;29856;52.144;5.430;2022-07-15T12:45:16;1.35;;;0.60;;
44189;SDS011;29856;52.144;5.430;2022-07-15T12:50:28;2.33;;;0.80;;
44189;SDS011;29856;52.144;5.430;2022-07-15T12:52:56;3.17;;;0.82;;
44189;SDS011;29856;52.144;5.430;2022-07-15T12:55:25;1.98;;;0.95;;
44189;SDS011;29856;52.144;5.430;2022-07-15T12:58:08;4.47;;;0.90;;
44189;SDS011;29856;52.144;5.430;2022-07-15T13:00:36;2.03;;;0.90;;
44189;SDS011;29856;52.144;5.430;2022-07-15T13:05:36;2.38;;;0.80;;
44189;SDS011;29856;52.144;5.430;2022-07-15T13:08:05;2.38;;;0.82;;
44189;SDS011;29856;52.144;5.430;2022-07-15T13:10:35;1.90;;;1.00;;
44189;SDS011;29856;52.144;5.430;2022-07-15T13:13:01;1.35;;;0.73;;
44189;SDS011;29856;52.144;5.430;2022-07-15T13:15:26;3.13;;;0.90;;
44189;SDS011;29856;52.144;5.430;2022-07-15T13:17:52;2.47;;;1.05;;
44189;SDS011;29856;52.144;5.430;2022-07-15T13:20:18;3.33;;;0.90;;
44189;SDS011;29856;52.144;5.430;2022-07-15T13:22:43;2.63;;;0.82;;
44189;SDS011;29856;52.144;5.430;2022-07-15T13:25:10;3.92;;;0.93;;
44189;SDS011;29856;52.144;5.430;2022-07-15T13:27:35;3.38;;;1.00;;
44189;SDS011;29856;52.144;5.430;2022-07-15T13:30:01;2.45;;;1.10;;
44189;SDS011;29856;52.144;5.430;2022-07-15T13:32:27;3.30;;;1.00;;
44189;SDS011;29856;52.144;5.430;2022-07-15T13:34:52;4.13;;;1.08;;
44189;SDS011;29856;52.144;5.430;2022-07-15T13:37:18;3.72;;;1.10;;
44189;SDS011;29856;52.144;5.430;2022-07-15T13:39:43;3.92;;;1.10;;
44189;SDS011;29856;52.144;5.430;2022-07-15T13:42:09;2.58;;;0.90;;
44189;SDS011;29856;52.144;5.430;2022-07-15T13:44:34;3.67;;;1.27;;
44189;SDS011;29856;52.144;5.430;2022-07-15T13:46:59;1.75;;;0.90;;
44189;SDS011;29856;52.144;5.430;2022-07-15T13:49:25;3.22;;;0.95;;
44189;SDS011;29856;52.144;5.430;2022-07-15T13:51:50;4.70;;;1.20;;
44189;SDS011;29856;52.144;5.430;2022-07-15T13:54:16;3.38;;;1.20;;
44189;SDS011;29856;52.144;5.430;2022-07-15T13:56:41;5.35;;;1.02;;
44189;SDS011;29856;52.144;5.430;2022-07-15T13:59:07;1.48;;;0.90;;
44189;SDS011;29856;52.144;5.430;2022-07-15T14:01:32;2.90;;;1.50;;
44189;SDS011;29856;52.144;5.430;2022-07-15T14:03:58;2.65;;;1.33;;
44189;SDS011;29856;52.144;5.430;2022-07-15T14:06:23;6.53;;;1.00;;
44189;SDS011;29856;52.144;5.430;2022-07-15T14:08:49;3.03;;;1.10;;
44189;SDS011;29856;52.144;5.430;2022-07-15T14:11:15;3.38;;;1.00;;
44189;SDS011;29856;52.144;5.430;2022-07-15T14:13:40;4.55;;;1.17;;
44189;SDS011;29856;52.144;5.430;2022-07-15T14:16:07;6.32;;;1.10;;
44189;SDS011;29856;52.144;5.430;2022-07-15T14:18:33;4.22;;;1.00;;
44189;SDS011;29856;52.144;5.430;2022-07-15T14:20:58;2.35;;;1.13;;
44189;SDS011;29856;52.144;5.430;2022-07-15T14:23:26;1.73;;;0.90;;
44189;SDS011;29856;52.144;5.430;2022-07-15T14:25:52;3.08;;;0.95;;
44189;SDS011;29856;52.144;5.430;2022-07-15T14:28:17;2.53;;;1.15;;
44189;SDS011;29856;52.144;5.430;2022-07-15T14:30:43;2.05;;;1.10;;
44189;SDS011;29856;52.144;5.430;2022-07-15T14:33:08;1.98;;;1.10;;
44189;SDS011;29856;52.144;5.430;2022-07-15T14:35:34;4.20;;;1.30;;
44189;SDS011;29856;52.144;5.430;2022-07-15T14:37:59;3.38;;;1.13;;
44189;SDS011;29856;52.144;5.430;2022-07-15T14:40:25;4.13;;;1.25;;
44189;SDS011;29856;52.144;5.430;2022-07-15T14:42:50;3.45;;;1.33;;
44189;SDS011;29856;52.144;5.430;2022-07-15T14:45:16;3.03;;;1.00;;
44189;SDS011;29856;52.144;5.430;2022-07-15T14:47:41;2.35;;;1.17;;
44189;SDS011;29856;52.144;5.430;2022-07-15T14:50:07;6.53;;;1.33;;
44189;SDS011;29856;52.144;5.430;2022-07-15T14:52:32;4.95;;;1.35;;
44189;SDS011;29856;52.144;5.430;2022-07-15T14:54:58;4.32;;;1.27;;
44189;SDS011;29856;52.144;5.430;2022-07-15T14:57:23;2.65;;;1.20;;
44189;SDS011;29856;52.144;5.430;2022-07-15T14:59:49;4.18;;;1.20;;
44189;SDS011;29856;52.144;5.430;2022-07-15T15:02:14;2.05;;;1.10;;
44189;SDS011;29856;52.144;5.430;2022-07-15T15:04:40;6.47;;;1.10;;
44189;SDS011;29856;52.144;5.430;2022-07-15T15:07:05;3.75;;;1.33;;
44189;SDS011;29856;52.144;5.430;2022-07-15T15:09:31;3.95;;;1.20;;
44189;SDS011;29856;52.144;5.430;2022-07-15T15:11:56;2.50;;;1.10;;
44189;SDS011;29856;52.144;5.430;2022-07-15T15:14:22;3.22;;;1.20;;
44189;SDS011;29856;52.144;5.430;2022-07-15T15:16:47;2.72;;;1.10;;
44189;SDS011;29856;52.144;5.430;2022-07-15T15:19:13;6.13;;;2.13;;
44189;SDS011;29856;52.144;5.430;2022-07-15T15:21:38;3.05;;;1.20;;
44189;SDS011;29856;52.144;5.430;2022-07-15T15:24:04;3.25;;;1.17;;
44189;SDS011;29856;52.144;5.430;2022-07-15T15:26:33;6.82;;;1.73;;